sensor_id;sensor_type;location;lat;lon;timestamp;temperature;humidity
20158;DHT22;10239;56.820;24.416;2023-04-03T00:01:10;0.00;99.90
20158;DHT22;10239;56.820;24.416;2023-04-03T00:03:38;0.00;99.90
20158;DHT22;10239;56.820;24.416;2023-04-03T00:06:06;-0.10;99.90
20158;DHT22;10239;56.820;24.416;2023-04-03T00:08:35;0.00;99.90
20158;DHT22;10239;56.820;24.416;2023-04-03T00:11:03;-0.10;99.90
20158;DHT22;10239;56.820;24.416;2023-04-03T00:13:33;0.00;99.90
20158;DHT22;10239;56.820;24.416;2023-04-03T00:16:01;0.00;99.90
20158;DHT22;10239;56.820;24.416;2023-04-03T00:18:31;0.00;99.90
20158;DHT22;10239;56.820;24.416;2023-04-03T00:20:59;-0.10;99.90
20158;DHT22;10239;56.820;24.416;2023-04-03T00:23:27;-0.20;99.90
20158;DHT22;10239;56.820;24.416;2023-04-03T00:25:54;-0.20;99.90
20158;DHT22;10239;56.820;24.416;2023-04-03T00:28:23;-0.10;99.90
20158;DHT22;10239;56.820;24.416;2023-04-03T00:30:51;-0.10;99.90
20158;DHT22;10239;56.820;24.416;2023-04-03T00:33:20;-0.10;99.90
20158;DHT22;10239;56.820;24.416;2023-04-03T00:35:49;-0.10;99.90
20158;DHT22;10239;56.820;24.416;2023-04-03T00:38:17;-0.10;99.90
20158;DHT22;10239;56.820;24.416;2023-04-03T00:40:48;-0.10;99.90
20158;DHT22;10239;56.820;24.416;2023-04-03T00:43:22;-0.10;99.90
20158;DHT22;10239;56.820;24.416;2023-04-03T00:45:52;-0.10;99.90
20158;DHT22;10239;56.820;24.416;2023-04-03T00:48:44;-0.10;99.90
20158;DHT22;10239;56.820;24.416;2023-04-03T00:51:25;-0.20;99.90
20158;DHT22;10239;56.820;24.416;2023-04-03T00:53:58;-0.30;99.90
20158;DHT22;10239;56.820;24.416;2023-04-03T00:56:28;-0.20;99.90
20158;DHT22;10239;56.820;24.416;2023-04-03T00:59:08;-0.20;99.90
20158;DHT22;10239;56.820;24.416;2023-04-03T01:01:38;-0.30;99.90
20158;DHT22;10239;56.820;24.416;2023-04-03T01:04:06;-0.30;99.90
20158;DHT22;10239;56.820;24.416;2023-04-03T01:06:36;-0.30;99.90
20158;DHT22;10239;56.820;24.416;2023-04-03T01:09:07;-0.40;99.90
20158;DHT22;10239;56.820;24.416;2023-04-03T01:11:35;-0.30;99.90
20158;DHT22;10239;56.820;24.416;2023-04-03T01:14:03;-0.30;99.90
20158;DHT22;10239;56.820;24.416;2023-04-03T01:16:33;-0.30;99.90
20158;DHT22;10239;56.820;24.416;2023-04-03T01:19:01;-0.30;99.90
20158;DHT22;10239;56.820;24.416;2023-04-03T01:24:37;-0.40;99.90
20158;DHT22;10239;56.820;24.416;2023-04-03T01:27:10;-0.30;99.90
20158;DHT22;10239;56.820;24.416;2023-04-03T01:29:40;-0.30;99.90
20158;DHT22;10239;56.820;24.416;2023-04-03T01:32:09;-0.40;99.90
20158;DHT22;10239;56.820;24.416;2023-04-03T01:34:37;-0.40;99.90
20158;DHT22;10239;56.820;24.416;2023-04-03T01:37:05;-0.50;99.90
20158;DHT22;10239;56.820;24.416;2023-04-03T01:39:32;-0.40;99.90
20158;DHT22;10239;56.820;24.416;2023-04-03T01:42:00;-0.50;99.90
20158;DHT22;10239;56.820;24.416;2023-04-03T01:44:35;-0.50;99.90
20158;DHT22;10239;56.820;24.416;2023-04-03T01:47:06;-0.40;99.90
20158;DHT22;10239;56.820;24.416;2023-04-03T01:49:35;-0.40;99.90
20158;DHT22;10239;56.820;24.416;2023-04-03T01:52:03;-0.40;99.90
20158;DHT22;10239;56.820;24.416;2023-04-03T01:54:31;-0.40;99.90
20158;DHT22;10239;56.820;24.416;2023-04-03T01:56:59;-0.40;99.90
20158;DHT22;10239;56.820;24.416;2023-04-03T01:59:27;-0.40;99.90
20158;DHT22;10239;56.820;24.416;2023-04-03T02:01:55;-0.50;99.90
20158;DHT22;10239;56.820;24.416;2023-04-03T02:04:23;-0.50;99.90
20158;DHT22;10239;56.820;24.416;2023-04-03T02:06:51;-0.50;99.90
20158;DHT22;10239;56.820;24.416;2023-04-03T02:09:19;-0.50;99.90
20158;DHT22;10239;56.820;24.416;2023-04-03T02:11:47;-0.50;99.90
20158;DHT22;10239;56.820;24.416;2023-04-03T02:14:14;-0.50;99.90
20158;DHT22;10239;56.820;24.416;2023-04-03T02:16:42;-0.50;99.90
20158;DHT22;10239;56.820;24.416;2023-04-03T02:19:10;-0.50;99.90
20158;DHT22;10239;56.820;24.416;2023-04-03T02:21:38;-0.50;99.90
20158;DHT22;10239;56.820;24.416;2023-04-03T02:24:05;-0.50;99.90
20158;DHT22;10239;56.820;24.416;2023-04-03T02:26:34;-0.50;99.90
20158;DHT22;10239;56.820;24.416;2023-04-03T02:29:02;-0.60;99.90
20158;DHT22;10239;56.820;24.416;2023-04-03T02:31:30;-0.60;99.90
20158;DHT22;10239;56.820;24.416;2023-04-03T02:34:00;-0.60;99.90
20158;DHT22;10239;56.820;24.416;2023-04-03T02:36:28;-0.70;99.90
20158;DHT22;10239;56.820;24.416;2023-04-03T02:39:01;-0.60;99.90
20158;DHT22;10239;56.820;24.416;2023-04-03T02:41:30;-0.60;99.90
20158;DHT22;10239;56.820;24.416;2023-04-03T02:44:07;-0.60;99.90
20158;DHT22;10239;56.820;24.416;2023-04-03T02:46:37;-0.60;99.90
20158;DHT22;10239;56.820;24.416;2023-04-03T02:49:05;-0.70;99.90
20158;DHT22;10239;56.820;24.416;2023-04-03T02:51:33;-0.70;99.90
20158;DHT22;10239;56.820;24.416;2023-04-03T02:54:00;-0.70;99.90
20158;DHT22;10239;56.820;24.416;2023-04-03T02:56:32;-0.80;99.90
20158;DHT22;10239;56.820;24.416;2023-04-03T02:58:59;-0.70;99.90
20158;DHT22;10239;56.820;24.416;2023-04-03T03:01:27;-0.70;99.90
20158;DHT22;10239;56.820;24.416;2023-04-03T03:03:59;-0.70;99.90
20158;DHT22;10239;56.820;24.416;2023-04-03T03:06:27;-0.70;99.90
20158;DHT22;10239;56.820;24.416;2023-04-03T03:08:55;-0.60;99.90
20158;DHT22;10239;56.820;24.416;2023-04-03T03:11:23;-0.60;99.90
20158;DHT22;10239;56.820;24.416;2023-04-03T03:13:51;-0.70;99.90
20158;DHT22;10239;56.820;24.416;2023-04-03T03:16:18;-0.70;99.90
20158;DHT22;10239;56.820;24.416;2023-04-03T03:18:46;-0.70;99.90
20158;DHT22;10239;56.820;24.416;2023-04-03T03:21:14;-0.60;99.90
20158;DHT22;10239;56.820;24.416;2023-04-03T03:23:42;-0.60;99.90
20158;DHT22;10239;56.820;24.416;2023-04-03T03:26:10;-0.70;99.90
20158;DHT22;10239;56.820;24.416;2023-04-03T03:28:39;-0.70;99.90
20158;DHT22;10239;56.820;24.416;2023-04-03T03:31:08;-0.70;99.90
20158;DHT22;10239;56.820;24.416;2023-04-03T03:33:39;-0.70;99.90
20158;DHT22;10239;56.820;24.416;2023-04-03T03:36:07;-0.50;99.90
20158;DHT22;10239;56.820;24.416;2023-04-03T03:38:36;-0.50;99.90
20158;DHT22;10239;56.820;24.416;2023-04-03T03:41:04;-0.50;99.90
20158;DHT22;10239;56.820;24.416;2023-04-03T03:43:33;-0.60;99.90
20158;DHT22;10239;56.820;24.416;2023-04-03T03:46:03;-0.60;99.90
20158;DHT22;10239;56.820;24.416;2023-04-03T03:48:30;-0.50;99.90
20158;DHT22;10239;56.820;24.416;2023-04-03T03:50:58;-0.60;99.90
20158;DHT22;10239;56.820;24.416;2023-04-03T03:53:30;-0.50;99.90
20158;DHT22;10239;56.820;24.416;2023-04-03T03:56:03;-0.50;99.90
20158;DHT22;10239;56.820;24.416;2023-04-03T03:58:33;-0.50;99.90
20158;DHT22;10239;56.820;24.416;2023-04-03T04:01:05;-0.60;99.90
20158;DHT22;10239;56.820;24.416;2023-04-03T04:03:38;-0.50;99.90
20158;DHT22;10239;56.820;24.416;2023-04-03T04:06:08;-0.50;99.90
20158;DHT22;10239;56.820;24.416;2023-04-03T04:08:36;-0.50;99.90
20158;DHT22;10239;56.820;24.416;2023-04-03T04:11:06;-0.40;99.90
20158;DHT22;10239;56.820;24.416;2023-04-03T04:13:35;-0.40;99.90
20158;DHT22;10239;56.820;24.416;2023-04-03T04:16:03;-0.40;99.90
20158;DHT22;10239;56.820;24.416;2023-04-03T04:18:32;-0.50;99.90
20158;DHT22;10239;56.820;24.416;2023-04-03T04:21:00;-0.40;99.90
20158;DHT22;10239;56.820;24.416;2023-04-03T04:23:28;-0.40;99.90
20158;DHT22;10239;56.820;24.416;2023-04-03T04:25:57;-0.40;99.90
20158;DHT22;10239;56.820;24.416;2023-04-03T04:28:25;-0.40;99.90
20158;DHT22;10239;56.820;24.416;2023-04-03T04:30:56;-0.40;99.90
20158;DHT22;10239;56.820;24.416;2023-04-03T04:33:26;-0.40;99.90
20158;DHT22;10239;56.820;24.416;2023-04-03T04:35:55;-0.30;99.90
20158;DHT22;10239;56.820;24.416;2023-04-03T04:38:23;-0.30;99.90
20158;DHT22;10239;56.820;24.416;2023-04-03T04:40:52;-0.20;99.90
20158;DHT22;10239;56.820;24.416;2023-04-03T04:43:20;-0.10;99.90
20158;DHT22;10239;56.820;24.416;2023-04-03T04:46:01;0.00;99.90
20158;DHT22;10239;56.820;24.416;2023-04-03T04:48:31;0.00;99.90
20158;DHT22;10239;56.820;24.416;2023-04-03T04:50:59;0.10;99.90
20158;DHT22;10239;56.820;24.416;2023-04-03T04:53:28;0.00;99.90
20158;DHT22;10239;56.820;24.416;2023-04-03T04:55:55;0.10;99.90
20158;DHT22;10239;56.820;24.416;2023-04-03T04:58:23;0.30;99.90
20158;DHT22;10239;56.820;24.416;2023-04-03T05:01:02;1.00;99.90
20158;DHT22;10239;56.820;24.416;2023-04-03T05:03:31;3.10;99.90
20158;DHT22;10239;56.820;24.416;2023-04-03T05:05:59;4.60;99.90
20158;DHT22;10239;56.820;24.416;2023-04-03T05:08:30;5.80;99.90
20158;DHT22;10239;56.820;24.416;2023-04-03T05:10:58;6.50;99.90
20158;DHT22;10239;56.820;24.416;2023-04-03T05:13:27;7.10;99.90
20158;DHT22;10239;56.820;24.416;2023-04-03T05:15:56;7.60;99.90
20158;DHT22;10239;56.820;24.416;2023-04-03T05:18:24;7.80;99.90
20158;DHT22;10239;56.820;24.416;2023-04-03T05:20:54;8.30;99.90
20158;DHT22;10239;56.820;24.416;2023-04-03T05:23:24;8.70;99.90
20158;DHT22;10239;56.820;24.416;2023-04-03T05:25:53;8.70;99.90
20158;DHT22;10239;56.820;24.416;2023-04-03T05:28:22;9.20;99.90
20158;DHT22;10239;56.820;24.416;2023-04-03T05:30:54;9.70;99.90
20158;DHT22;10239;56.820;24.416;2023-04-03T05:33:31;9.80;99.90
20158;DHT22;10239;56.820;24.416;2023-04-03T05:36:06;10.40;99.90
20158;DHT22;10239;56.820;24.416;2023-04-03T05:38:40;10.40;99.90
20158;DHT22;10239;56.820;24.416;2023-04-03T05:41:07;10.30;99.90
20158;DHT22;10239;56.820;24.416;2023-04-03T05:43:35;10.80;99.90
20158;DHT22;10239;56.820;24.416;2023-04-03T05:46:18;10.60;99.90
20158;DHT22;10239;56.820;24.416;2023-04-03T05:48:50;11.00;99.90
20158;DHT22;10239;56.820;24.416;2023-04-03T05:51:32;11.40;99.90
20158;DHT22;10239;56.820;24.416;2023-04-03T05:54:18;11.80;99.60
20158;DHT22;10239;56.820;24.416;2023-04-03T05:56:47;11.70;99.70
20158;DHT22;10239;56.820;24.416;2023-04-03T05:59:15;11.60;99.50
20158;DHT22;10239;56.820;24.416;2023-04-03T06:01:43;11.70;98.50
20158;DHT22;10239;56.820;24.416;2023-04-03T06:04:12;11.50;98.40
20158;DHT22;10239;56.820;24.416;2023-04-03T06:06:55;11.70;97.70
20158;DHT22;10239;56.820;24.416;2023-04-03T06:09:26;11.70;97.30
20158;DHT22;10239;56.820;24.416;2023-04-03T06:11:57;11.80;97.50
20158;DHT22;10239;56.820;24.416;2023-04-03T06:14:29;12.20;97.00
20158;DHT22;10239;56.820;24.416;2023-04-03T06:16:57;12.40;95.80
20158;DHT22;10239;56.820;24.416;2023-04-03T06:19:25;12.20;96.60
20158;DHT22;10239;56.820;24.416;2023-04-03T06:21:55;12.80;95.90
20158;DHT22;10239;56.820;24.416;2023-04-03T06:24:23;12.90;95.20
20158;DHT22;10239;56.820;24.416;2023-04-03T06:26:52;13.20;94.30
20158;DHT22;10239;56.820;24.416;2023-04-03T06:29:21;13.20;93.40
20158;DHT22;10239;56.820;24.416;2023-04-03T06:31:49;13.60;92.40
20158;DHT22;10239;56.820;24.416;2023-04-03T06:34:17;13.20;92.60
20158;DHT22;10239;56.820;24.416;2023-04-03T06:36:45;12.80;93.30
20158;DHT22;10239;56.820;24.416;2023-04-03T06:39:18;13.20;92.00
20158;DHT22;10239;56.820;24.416;2023-04-03T06:41:48;13.50;91.40
20158;DHT22;10239;56.820;24.416;2023-04-03T06:44:17;13.10;92.20
20158;DHT22;10239;56.820;24.416;2023-04-03T06:46:45;13.30;91.70
20158;DHT22;10239;56.820;24.416;2023-04-03T06:49:13;13.50;90.70
20158;DHT22;10239;56.820;24.416;2023-04-03T06:51:42;14.20;90.00
20158;DHT22;10239;56.820;24.416;2023-04-03T06:54:10;14.10;89.60
20158;DHT22;10239;56.820;24.416;2023-04-03T06:56:38;14.00;88.90
20158;DHT22;10239;56.820;24.416;2023-04-03T06:59:06;13.90;89.90
20158;DHT22;10239;56.820;24.416;2023-04-03T07:01:33;14.00;87.80
20158;DHT22;10239;56.820;24.416;2023-04-03T07:04:01;14.30;85.20
20158;DHT22;10239;56.820;24.416;2023-04-03T07:06:29;14.00;84.00
20158;DHT22;10239;56.820;24.416;2023-04-03T07:08:58;13.80;84.30
20158;DHT22;10239;56.820;24.416;2023-04-03T07:11:26;14.00;83.20
20158;DHT22;10239;56.820;24.416;2023-04-03T07:13:54;14.10;82.50
20158;DHT22;10239;56.820;24.416;2023-04-03T07:16:22;14.70;81.60
20158;DHT22;10239;56.820;24.416;2023-04-03T07:18:49;14.20;81.10
20158;DHT22;10239;56.820;24.416;2023-04-03T07:21:16;13.90;82.40
20158;DHT22;10239;56.820;24.416;2023-04-03T07:23:44;13.80;81.20
20158;DHT22;10239;56.820;24.416;2023-04-03T07:26:12;13.50;82.20
20158;DHT22;10239;56.820;24.416;2023-04-03T07:28:40;14.00;81.40
20158;DHT22;10239;56.820;24.416;2023-04-03T07:31:11;14.10;79.10
20158;DHT22;10239;56.820;24.416;2023-04-03T07:33:41;13.80;80.20
20158;DHT22;10239;56.820;24.416;2023-04-03T07:36:09;13.00;79.60
20158;DHT22;10239;56.820;24.416;2023-04-03T07:38:38;13.10;79.20
20158;DHT22;10239;56.820;24.416;2023-04-03T07:41:05;12.90;81.00
20158;DHT22;10239;56.820;24.416;2023-04-03T07:43:32;13.20;80.10
20158;DHT22;10239;56.820;24.416;2023-04-03T07:46:01;13.50;79.30
20158;DHT22;10239;56.820;24.416;2023-04-03T07:48:32;13.70;79.70
20158;DHT22;10239;56.820;24.416;2023-04-03T07:51:00;13.50;78.00
20158;DHT22;10239;56.820;24.416;2023-04-03T07:53:31;13.60;77.40
20158;DHT22;10239;56.820;24.416;2023-04-03T07:55:59;13.50;77.70
20158;DHT22;10239;56.820;24.416;2023-04-03T07:58:27;13.50;77.00
20158;DHT22;10239;56.820;24.416;2023-04-03T08:00:55;13.60;78.10
20158;DHT22;10239;56.820;24.416;2023-04-03T08:03:23;13.30;76.80
20158;DHT22;10239;56.820;24.416;2023-04-03T08:05:51;13.60;76.80
20158;DHT22;10239;56.820;24.416;2023-04-03T08:08:22;13.90;76.20
20158;DHT22;10239;56.820;24.416;2023-04-03T08:10:52;14.00;74.90
20158;DHT22;10239;56.820;24.416;2023-04-03T08:13:21;13.80;77.10
20158;DHT22;10239;56.820;24.416;2023-04-03T08:15:49;13.70;77.20
20158;DHT22;10239;56.820;24.416;2023-04-03T08:18:18;13.90;78.50
20158;DHT22;10239;56.820;24.416;2023-04-03T08:20:49;14.10;74.60
20158;DHT22;10239;56.820;24.416;2023-04-03T08:23:17;13.90;77.50
20158;DHT22;10239;56.820;24.416;2023-04-03T08:25:46;14.00;76.20
20158;DHT22;10239;56.820;24.416;2023-04-03T08:28:14;14.00;75.80
20158;DHT22;10239;56.820;24.416;2023-04-03T08:30:42;14.60;76.20
20158;DHT22;10239;56.820;24.416;2023-04-03T08:33:11;14.80;74.50
20158;DHT22;10239;56.820;24.416;2023-04-03T08:35:41;13.50;76.20
20158;DHT22;10239;56.820;24.416;2023-04-03T08:38:11;13.50;76.00
20158;DHT22;10239;56.820;24.416;2023-04-03T08:40:45;12.90;77.50
20158;DHT22;10239;56.820;24.416;2023-04-03T08:45:52;11.10;80.50
20158;DHT22;10239;56.820;24.416;2023-04-03T08:48:31;10.20;83.90
20158;DHT22;10239;56.820;24.416;2023-04-03T08:51:19;9.90;85.10
20158;DHT22;10239;56.820;24.416;2023-04-03T08:54:15;9.80;85.40
20158;DHT22;10239;56.820;24.416;2023-04-03T08:56:44;10.90;88.90
20158;DHT22;10239;56.820;24.416;2023-04-03T08:59:28;11.70;82.40
20158;DHT22;10239;56.820;24.416;2023-04-03T09:01:59;11.90;83.60
20158;DHT22;10239;56.820;24.416;2023-04-03T09:04:31;12.50;83.20
20158;DHT22;10239;56.820;24.416;2023-04-03T09:07:14;12.60;81.40
20158;DHT22;10239;56.820;24.416;2023-04-03T09:09:45;12.50;83.20
20158;DHT22;10239;56.820;24.416;2023-04-03T09:12:25;13.20;83.20
20158;DHT22;10239;56.820;24.416;2023-04-03T09:15:14;12.80;83.90
20158;DHT22;10239;56.820;24.416;2023-04-03T09:18:05;11.60;82.40
20158;DHT22;10239;56.820;24.416;2023-04-03T09:20:44;10.40;86.70
20158;DHT22;10239;56.820;24.416;2023-04-03T09:26:08;9.80;88.60
20158;DHT22;10239;56.820;24.416;2023-04-03T09:28:40;10.30;90.00
20158;DHT22;10239;56.820;24.416;2023-04-03T09:33:50;11.50;87.60
20158;DHT22;10239;56.820;24.416;2023-04-03T09:36:39;11.80;88.40
20158;DHT22;10239;56.820;24.416;2023-04-03T09:39:17;11.40;88.10
20158;DHT22;10239;56.820;24.416;2023-04-03T09:42:11;10.70;89.90
20158;DHT22;10239;56.820;24.416;2023-04-03T09:44:42;10.50;89.20
20158;DHT22;10239;56.820;24.416;2023-04-03T09:47:29;9.50;90.20
20158;DHT22;10239;56.820;24.416;2023-04-03T09:52:44;8.10;91.20
20158;DHT22;10239;56.820;24.416;2023-04-03T09:55:25;8.90;92.10
20158;DHT22;10239;56.820;24.416;2023-04-03T09:58:04;9.20;91.90
20158;DHT22;10239;56.820;24.416;2023-04-03T10:00:37;8.20;92.20
20158;DHT22;10239;56.820;24.416;2023-04-03T10:03:24;8.30;92.90
20158;DHT22;10239;56.820;24.416;2023-04-03T10:05:53;8.80;91.60
20158;DHT22;10239;56.820;24.416;2023-04-03T10:08:35;9.00;92.80
20158;DHT22;10239;56.820;24.416;2023-04-03T10:11:12;8.90;92.30
20158;DHT22;10239;56.820;24.416;2023-04-03T10:16:41;8.70;92.90
20158;DHT22;10239;56.820;24.416;2023-04-03T10:19:35;8.50;93.40
20158;DHT22;10239;56.820;24.416;2023-04-03T10:22:09;8.10;93.30
20158;DHT22;10239;56.820;24.416;2023-04-03T10:25:04;7.90;94.60
20158;DHT22;10239;56.820;24.416;2023-04-03T10:30:42;8.40;94.60
20158;DHT22;10239;56.820;24.416;2023-04-03T10:39:28;8.30;94.30
20158;DHT22;10239;56.820;24.416;2023-04-03T10:45:49;6.90;94.40
20158;DHT22;10239;56.820;24.416;2023-04-03T10:53:30;6.60;96.70
20158;DHT22;10239;56.820;24.416;2023-04-03T10:56:13;7.40;95.70
20158;DHT22;10239;56.820;24.416;2023-04-03T10:58:58;7.90;94.80
20158;DHT22;10239;56.820;24.416;2023-04-03T11:01:34;7.70;95.20
20158;DHT22;10239;56.820;24.416;2023-04-03T11:04:05;7.30;94.40
20158;DHT22;10239;56.820;24.416;2023-04-03T11:06:47;6.80;95.30
20158;DHT22;10239;56.820;24.416;2023-04-03T11:09:43;6.50;96.00
20158;DHT22;10239;56.820;24.416;2023-04-03T11:14:51;6.90;96.70
20158;DHT22;10239;56.820;24.416;2023-04-03T11:17:38;7.50;96.10
20158;DHT22;10239;56.820;24.416;2023-04-03T11:20:28;7.80;95.00
20158;DHT22;10239;56.820;24.416;2023-04-03T11:23:06;7.60;94.70
20158;DHT22;10239;56.820;24.416;2023-04-03T11:25:41;6.90;95.20
20158;DHT22;10239;56.820;24.416;2023-04-03T11:28:13;6.60;95.60
20158;DHT22;10239;56.820;24.416;2023-04-03T11:36:30;6.90;97.20
20158;DHT22;10239;56.820;24.416;2023-04-03T11:41:43;7.20;96.00
20158;DHT22;10239;56.820;24.416;2023-04-03T11:44:36;7.00;95.30
20158;DHT22;10239;56.820;24.416;2023-04-03T11:47:07;6.70;96.10
20158;DHT22;10239;56.820;24.416;2023-04-03T11:49:56;6.60;96.30
20158;DHT22;10239;56.820;24.416;2023-04-03T12:00:51;7.20;96.10
20158;DHT22;10239;56.820;24.416;2023-04-03T12:05:55;7.00;96.80
20158;DHT22;10239;56.820;24.416;2023-04-03T12:08:29;7.10;96.60
20158;DHT22;10239;56.820;24.416;2023-04-03T12:14:04;7.10;96.70
20158;DHT22;10239;56.820;24.416;2023-04-03T12:24:32;6.60;96.60
20158;DHT22;10239;56.820;24.416;2023-04-03T12:37:37;7.40;96.10
20158;DHT22;10239;56.820;24.416;2023-04-03T12:40:08;7.20;96.30
20158;DHT22;10239;56.820;24.416;2023-04-03T12:48:48;6.90;96.50
20158;DHT22;10239;56.820;24.416;2023-04-03T12:51:40;7.00;96.80
20158;DHT22;10239;56.820;24.416;2023-04-03T12:54:23;6.80;97.10
20158;DHT22;10239;56.820;24.416;2023-04-03T12:57:10;6.30;97.40
20158;DHT22;10239;56.820;24.416;2023-04-03T12:59:38;5.90;99.10
20158;DHT22;10239;56.820;24.416;2023-04-03T13:02:29;5.80;99.90
20158;DHT22;10239;56.820;24.416;2023-04-03T13:05:18;5.60;99.90
20158;DHT22;10239;56.820;24.416;2023-04-03T13:07:54;5.70;99.90
20158;DHT22;10239;56.820;24.416;2023-04-03T13:10:24;5.70;99.90
20158;DHT22;10239;56.820;24.416;2023-04-03T13:13:06;5.80;99.90
20158;DHT22;10239;56.820;24.416;2023-04-03T13:15:46;5.90;99.90
20158;DHT22;10239;56.820;24.416;2023-04-03T13:18:30;5.70;99.90
20158;DHT22;10239;56.820;24.416;2023-04-03T13:23:37;5.40;99.90
20158;DHT22;10239;56.820;24.416;2023-04-03T13:26:07;5.30;99.90
20158;DHT22;10239;56.820;24.416;2023-04-03T13:28:37;5.20;99.90
20158;DHT22;10239;56.820;24.416;2023-04-03T13:31:18;5.10;99.90
20158;DHT22;10239;56.820;24.416;2023-04-03T13:34:03;4.80;99.90
20158;DHT22;10239;56.820;24.416;2023-04-03T13:36:34;4.60;99.90
20158;DHT22;10239;56.820;24.416;2023-04-03T13:41:40;4.50;99.90
20158;DHT22;10239;56.820;24.416;2023-04-03T13:44:36;4.40;99.90
20158;DHT22;10239;56.820;24.416;2023-04-03T13:47:18;4.40;99.90
20158;DHT22;10239;56.820;24.416;2023-04-03T13:50:11;4.50;99.90
20158;DHT22;10239;56.820;24.416;2023-04-03T13:55:29;4.70;99.90
20158;DHT22;10239;56.820;24.416;2023-04-03T14:00:48;4.80;99.90
20158;DHT22;10239;56.820;24.416;2023-04-03T14:05:50;4.50;99.90
20158;DHT22;10239;56.820;24.416;2023-04-03T14:08:19;4.60;99.90
20158;DHT22;10239;56.820;24.416;2023-04-03T14:10:59;4.60;99.90
20158;DHT22;10239;56.820;24.416;2023-04-03T14:13:30;4.60;99.90
20158;DHT22;10239;56.820;24.416;2023-04-03T14:15:58;4.60;99.90
20158;DHT22;10239;56.820;24.416;2023-04-03T14:18:41;4.50;99.90
20158;DHT22;10239;56.820;24.416;2023-04-03T14:21:15;4.30;99.90
20158;DHT22;10239;56.820;24.416;2023-04-03T14:23:44;4.30;99.90
20158;DHT22;10239;56.820;24.416;2023-04-03T14:26:14;4.10;99.90
20158;DHT22;10239;56.820;24.416;2023-04-03T14:28:45;3.90;99.90
20158;DHT22;10239;56.820;24.416;2023-04-03T14:31:15;3.80;99.90
20158;DHT22;10239;56.820;24.416;2023-04-03T14:33:43;3.70;99.90
20158;DHT22;10239;56.820;24.416;2023-04-03T14:36:25;3.80;99.90
20158;DHT22;10239;56.820;24.416;2023-04-03T14:38:54;3.60;99.90
20158;DHT22;10239;56.820;24.416;2023-04-03T14:41:23;3.60;99.90
20158;DHT22;10239;56.820;24.416;2023-04-03T14:43:52;3.60;99.90
20158;DHT22;10239;56.820;24.416;2023-04-03T14:49:22;3.50;99.90
20158;DHT22;10239;56.820;24.416;2023-04-03T14:51:51;3.50;99.90
20158;DHT22;10239;56.820;24.416;2023-04-03T14:54:21;3.60;99.90
20158;DHT22;10239;56.820;24.416;2023-04-03T14:56:53;3.50;99.90
20158;DHT22;10239;56.820;24.416;2023-04-03T14:59:22;3.60;99.90
20158;DHT22;10239;56.820;24.416;2023-04-03T15:01:49;3.60;99.90
20158;DHT22;10239;56.820;24.416;2023-04-03T15:04:19;3.60;99.90
20158;DHT22;10239;56.820;24.416;2023-04-03T15:06:48;3.40;99.90
20158;DHT22;10239;56.820;24.416;2023-04-03T15:09:28;3.40;99.90
20158;DHT22;10239;56.820;24.416;2023-04-03T15:11:56;3.30;99.90
20158;DHT22;10239;56.820;24.416;2023-04-03T15:14:23;3.30;99.90
20158;DHT22;10239;56.820;24.416;2023-04-03T15:17:09;3.20;99.90
20158;DHT22;10239;56.820;24.416;2023-04-03T15:19:40;3.20;99.90
20158;DHT22;10239;56.820;24.416;2023-04-03T15:22:19;3.20;99.90
20158;DHT22;10239;56.820;24.416;2023-04-03T15:24:46;3.20;99.90
20158;DHT22;10239;56.820;24.416;2023-04-03T15:27:14;3.20;99.90
20158;DHT22;10239;56.820;24.416;2023-04-03T15:29:43;3.10;99.90
20158;DHT22;10239;56.820;24.416;2023-04-03T15:32:12;3.10;99.90
20158;DHT22;10239;56.820;24.416;2023-04-03T15:34:40;3.00;99.90
20158;DHT22;10239;56.820;24.416;2023-04-03T15:37:07;3.10;99.90
20158;DHT22;10239;56.820;24.416;2023-04-03T15:39:35;3.10;99.90
20158;DHT22;10239;56.820;24.416;2023-04-03T15:42:02;3.10;99.90
20158;DHT22;10239;56.820;24.416;2023-04-03T15:44:35;2.90;99.90
20158;DHT22;10239;56.820;24.416;2023-04-03T15:47:03;2.80;99.90
20158;DHT22;10239;56.820;24.416;2023-04-03T15:49:33;2.90;99.90
20158;DHT22;10239;56.820;24.416;2023-04-03T15:52:01;2.90;99.90
20158;DHT22;10239;56.820;24.416;2023-04-03T15:54:29;2.90;99.90
20158;DHT22;10239;56.820;24.416;2023-04-03T15:56:56;2.70;99.90
20158;DHT22;10239;56.820;24.416;2023-04-03T15:59:24;2.60;99.90
20158;DHT22;10239;56.820;24.416;2023-04-03T16:01:52;2.60;99.90
20158;DHT22;10239;56.820;24.416;2023-04-03T16:04:20;2.60;99.90
20158;DHT22;10239;56.820;24.416;2023-04-03T16:06:48;2.50;99.90
20158;DHT22;10239;56.820;24.416;2023-04-03T16:09:16;2.30;99.90
20158;DHT22;10239;56.820;24.416;2023-04-03T16:11:44;2.40;99.90
20158;DHT22;10239;56.820;24.416;2023-04-03T16:14:11;2.40;99.90
20158;DHT22;10239;56.820;24.416;2023-04-03T16:16:39;2.50;99.90
20158;DHT22;10239;56.820;24.416;2023-04-03T16:19:07;2.40;99.90
20158;DHT22;10239;56.820;24.416;2023-04-03T16:21:35;2.30;99.90
20158;DHT22;10239;56.820;24.416;2023-04-03T16:24:03;2.30;99.90
20158;DHT22;10239;56.820;24.416;2023-04-03T16:26:31;2.40;99.90
20158;DHT22;10239;56.820;24.416;2023-04-03T16:28:59;2.30;99.90
20158;DHT22;10239;56.820;24.416;2023-04-03T16:31:26;2.30;99.90
20158;DHT22;10239;56.820;24.416;2023-04-03T16:33:55;2.30;99.90
20158;DHT22;10239;56.820;24.416;2023-04-03T16:36:24;2.20;99.90
20158;DHT22;10239;56.820;24.416;2023-04-03T16:38:52;2.10;99.90
20158;DHT22;10239;56.820;24.416;2023-04-03T16:41:20;2.20;99.90
20158;DHT22;10239;56.820;24.416;2023-04-03T16:43:47;2.00;99.90
20158;DHT22;10239;56.820;24.416;2023-04-03T16:46:14;2.10;99.90
20158;DHT22;10239;56.820;24.416;2023-04-03T16:48:42;2.10;99.90
20158;DHT22;10239;56.820;24.416;2023-04-03T16:51:11;2.00;99.90
20158;DHT22;10239;56.820;24.416;2023-04-03T16:53:38;2.00;99.90
20158;DHT22;10239;56.820;24.416;2023-04-03T16:56:06;2.00;99.90
20158;DHT22;10239;56.820;24.416;2023-04-03T16:58:33;2.00;99.90
20158;DHT22;10239;56.820;24.416;2023-04-03T17:01:16;1.90;99.90
20158;DHT22;10239;56.820;24.416;2023-04-03T17:03:44;1.80;99.90
20158;DHT22;10239;56.820;24.416;2023-04-03T17:06:16;1.80;99.90
20158;DHT22;10239;56.820;24.416;2023-04-03T17:08:46;1.70;99.90
20158;DHT22;10239;56.820;24.416;2023-04-03T17:11:26;1.70;99.90
20158;DHT22;10239;56.820;24.416;2023-04-03T17:13:54;1.70;99.90
20158;DHT22;10239;56.820;24.416;2023-04-03T17:16:22;1.80;99.90
20158;DHT22;10239;56.820;24.416;2023-04-03T17:18:50;1.80;99.90
20158;DHT22;10239;56.820;24.416;2023-04-03T17:21:19;1.80;99.90
20158;DHT22;10239;56.820;24.416;2023-04-03T17:23:51;1.70;99.90
20158;DHT22;10239;56.820;24.416;2023-04-03T17:26:21;1.70;99.90
20158;DHT22;10239;56.820;24.416;2023-04-03T17:28:48;1.70;99.90
20158;DHT22;10239;56.820;24.416;2023-04-03T17:31:15;1.70;99.90